Time;durP1;ratioP1;P1;durP2;ratioP2;P2;SDS_P1;SDS_P2;PMS_P1;PMS_P2;Temp;Humidity;BMP_temperature;BMP_pressure;BME280_temperature;BME280_humidity;BME280_pressure;Samples;Min_cycle;Max_cycle;Signal;HPM_P1;HPM_P2
2023/03/28 00:01:58;;;;;;;3.55;0.73;;;2.30;99.90;;;;;;5070228;28;20076;-72
2023/03/28 00:04:23;;;;;;;2.28;0.60;;;2.30;99.90;;;;;;5072275;28;20144;-72
2023/03/28 00:06:50;;;;;;;2.58;0.65;;;2.30;99.90;;;;;;5071486;28;20123;-72
2023/03/28 00:09:16;;;;;;;1.90;0.70;;;2.30;99.90;;;;;;5070877;28;20047;-72
2023/03/28 00:11:42;;;;;;;2.40;0.47;;;2.30;99.90;;;;;;5081032;28;20078;-72
2023/03/28 00:14:08;;;;;;;4.55;0.47;;;2.20;99.90;;;;;;5061982;28;20139;-72
2023/03/28 00:16:36;;;;;;;2.53;0.30;;;2.20;99.90;;;;;;5053705;28;20102;-72
2023/03/28 00:19:04;;;;;;;1.40;0.30;;;2.20;99.90;;;;;;5089531;28;20394;-72
2023/03/28 00:21:33;;;;;;;0.52;0.50;;;2.20;99.90;;;;;;5052262;28;20032;-72
2023/03/28 00:24:01;;;;;;;0.52;0.20;;;2.20;99.90;;;;;;5102124;27;20033;-72
2023/03/28 00:26:29;;;;;;;2.35;0.40;;;2.10;99.90;;;;;;5075147;28;20055;-72
2023/03/28 00:28:56;;;;;;;4.72;0.68;;;2.10;99.90;;;;;;5070427;28;20127;-72
2023/03/28 00:31:23;;;;;;;1.13;0.80;;;2.10;99.90;;;;;;5070611;28;20097;-72
2023/03/28 00:33:49;;;;;;;1.60;0.40;;;2.10;99.90;;;;;;5050947;28;20139;-72
2023/03/28 00:36:21;;;;;;;2.28;0.68;;;2.00;99.90;;;;;;5069279;28;20128;-72
2023/03/28 00:38:52;;;;;;;2.15;0.60;;;2.10;99.90;;;;;;5068782;28;20610;-72
2023/03/28 00:41:20;;;;;;;0.55;0.30;;;2.10;99.90;;;;;;5057609;28;20410;-72
2023/03/28 00:43:51;;;;;;;4.90;0.50;;;2.00;99.90;;;;;;5055963;28;20382;-72
2023/03/28 00:46:37;;;;;;;1.58;0.55;;;2.00;99.90;;;;;;5085392;27;20033;-72
2023/03/28 00:49:13;;;;;;;1.65;0.75;;;2.00;99.90;;;;;;5072175;28;20115;-72
2023/03/28 00:51:44;;;;;;;7.70;0.70;;;2.00;99.90;;;;;;5073433;28;20115;-72
2023/03/28 00:54:17;;;;;;;1.13;0.50;;;1.90;99.90;;;;;;5052985;28;20604;-72
2023/03/28 00:56:47;;;;;;;1.15;0.40;;;2.00;99.90;;;;;;5087303;27;20036;-72
2023/03/28 00:59:17;;;;;;;1.17;0.47;;;2.00;99.90;;;;;;5073290;28;20129;-72
2023/03/28 01:01:44;;;;;;;2.28;0.38;;;2.00;99.90;;;;;;5075732;28;20079;-72
2023/03/28 01:04:18;;;;;;;2.70;0.50;;;1.90;99.90;;;;;;5073890;28;20119;-72
2023/03/28 01:06:47;;;;;;;2.40;0.55;;;1.90;99.90;;;;;;5056622;28;20127;-72
2023/03/28 01:09:15;;;;;;;8.55;1.02;;;1.90;99.90;;;;;;5071318;28;20127;-72
2023/03/28 01:11:44;;;;;;;7.63;0.93;;;1.90;99.90;;;;;;5072523;28;20189;-72
2023/03/28 01:14:14;;;;;;;3.20;0.40;;;1.90;99.90;;;;;;5109129;27;20052;-72
2023/03/28 01:16:40;;;;;;;6.32;0.30;;;1.90;99.90;;;;;;5074345;28;20060;-72
2023/03/28 01:19:25;;;;;;;1.58;0.47;;;1.90;99.90;;;;;;5069048;28;20047;-72
2023/03/28 01:21:54;;;;;;;0.47;0.25;;;1.90;99.90;;;;;;5057256;28;20059;-72
2023/03/28 01:24:54;;;;;;;2.20;0.35;;;1.90;99.90;;;;;;5083977;28;20490;-72
2023/03/28 01:27:36;;;;;;;3.72;0.40;;;2.00;99.90;;;;;;5057928;28;20526;-72
2023/03/28 01:30:14;;;;;;;3.47;0.43;;;2.00;99.90;;;;;;5068613;28;20489;-72
2023/03/28 01:33:08;;;;;;;6.53;0.90;;;2.00;99.90;;;;;;5085823;28;20042;-72
2023/03/28 01:36:20;;;;;;;3.13;0.43;;;2.00;99.90;;;;;;5069527;28;20396;-72
2023/03/28 01:39:07;;;;;;;3.97;0.70;;;2.00;99.90;;;;;;5068575;28;20133;-72
2023/03/28 01:41:47;;;;;;;0.95;0.20;;;2.00;99.90;;;;;;5088779;27;20045;-72
2023/03/28 01:44:33;;;;;;;0.55;0.20;;;2.00;99.90;;;;;;5071844;28;20043;-72
2023/03/28 01:47:22;;;;;;;2.00;0.35;;;1.90;99.90;;;;;;5056139;28;20036;-72
2023/03/28 01:50:02;;;;;;;1.02;0.15;;;2.00;99.90;;;;;;5064940;28;20100;-72
2023/03/28 01:52:39;;;;;;;2.65;0.68;;;2.00;99.90;;;;;;5106526;27;20123;-72
2023/03/28 01:55:11;;;;;;;1.17;0.40;;;2.00;99.90;;;;;;5054985;28;20074;-72
2023/03/28 01:57:56;;;;;;;2.33;0.50;;;2.00;99.90;;;;;;5052986;28;20240;-72
2023/03/28 02:00:38;;;;;;;1.45;0.15;;;2.00;99.90;;;;;;5061495;28;20039;-72
2023/03/28 02:03:10;;;;;;;0.60;0.20;;;2.00;99.90;;;;;;5095101;28;20591;-72
2023/03/28 02:05:38;;;;;;;2.92;0.50;;;2.00;99.90;;;;;;5069655;28;20032;-72
2023/03/28 02:08:07;;;;;;;1.05;0.47;;;1.90;99.90;;;;;;5081356;28;20126;-72
2023/03/28 02:10:35;;;;;;;0.30;0.17;;;1.90;99.90;;;;;;5103610;27;20040;-72
2023/03/28 02:13:13;;;;;;;2.63;0.52;;;1.90;99.90;;;;;;5055591;28;20092;-72
2023/03/28 02:15:41;;;;;;;1.08;0.40;;;1.80;99.90;;;;;;5083268;28;20040;-72
2023/03/28 02:18:15;;;;;;;1.20;0.45;;;1.80;99.90;;;;;;5066130;28;20494;-72
2023/03/28 02:20:44;;;;;;;5.53;1.00;;;1.80;99.90;;;;;;5051333;28;20041;-72
2023/03/28 02:23:35;;;;;;;2.65;0.38;;;1.70;99.90;;;;;;5069757;28;20036;-72
2023/03/28 02:26:01;;;;;;;7.75;0.50;;;1.80;99.90;;;;;;5069629;28;20520;-72
2023/03/28 02:28:30;;;;;;;5.55;0.65;;;1.70;99.90;;;;;;5056201;28;20028;-72
2023/03/28 02:30:56;;;;;;;5.57;0.65;;;1.70;99.90;;;;;;5073514;28;20075;-72
2023/03/28 02:33:38;;;;;;;1.73;0.52;;;1.70;99.90;;;;;;5045379;28;20079;-72
2023/03/28 02:36:15;;;;;;;2.65;0.30;;;1.70;99.90;;;;;;5097851;28;20052;-72
2023/03/28 02:39:00;;;;;;;0.40;0.30;;;1.70;99.90;;;;;;5071271;28;20044;-72
2023/03/28 02:41:48;;;;;;;1.70;0.60;;;1.70;99.90;;;;;;5073514;28;20085;-72
2023/03/28 02:44:31;;;;;;;1.40;0.45;;;1.70;99.90;;;;;;5071502;28;20052;-72
2023/03/28 02:47:15;;;;;;;2.03;0.68;;;1.70;99.90;;;;;;5067662;28;20040;-72
2023/03/28 02:50:19;;;;;;;3.50;0.35;;;1.70;99.90;;;;;;5070734;28;20053;-72
2023/03/28 02:52:55;;;;;;;1.42;0.50;;;1.70;99.90;;;;;;5040135;28;20048;-72
2023/03/28 02:55:30;;;;;;;1.38;0.10;;;1.80;99.90;;;;;;5060212;28;20213;-72
2023/03/28 02:58:13;;;;;;;5.63;0.80;;;1.70;99.90;;;;;;5104202;28;20082;-72
2023/03/28 03:00:38;;;;;;;3.72;0.55;;;1.80;99.90;;;;;;5073038;28;20039;-72
2023/03/28 03:03:10;;;;;;;0.77;0.43;;;1.70;99.90;;;;;;5062283;28;20401;-72
2023/03/28 03:05:36;;;;;;;0.98;0.40;;;1.70;99.90;;;;;;5060793;28;20039;-72
2023/03/28 03:08:02;;;;;;;1.73;0.57;;;1.60;99.90;;;;;;5069803;28;20790;-72
2023/03/28 03:10:28;;;;;;;2.90;0.60;;;1.60;99.90;;;;;;5073162;28;20044;-72
2023/03/28 03:12:53;;;;;;;5.10;0.65;;;1.60;99.90;;;;;;5073599;28;20068;-72
2023/03/28 03:15:19;;;;;;;0.63;0.30;;;1.50;99.90;;;;;;5054885;28;20047;-72
2023/03/28 03:17:45;;;;;;;1.55;0.28;;;1.50;99.90;;;;;;5074165;28;20043;-72
2023/03/28 03:20:12;;;;;;;9.85;0.85;;;1.50;99.90;;;;;;5049304;28;20033;-72
2023/03/28 03:22:37;;;;;;;3.95;0.30;;;1.50;99.90;;;;;;5073428;28;20046;-72
2023/03/28 03:25:08;;;;;;;1.92;0.50;;;1.50;99.90;;;;;;5086727;28;20040;-72
2023/03/28 03:27:36;;;;;;;2.33;0.30;;;1.50;99.90;;;;;;5059580;28;20047;-72
2023/03/28 03:30:03;;;;;;;2.72;0.57;;;1.50;99.90;;;;;;5072308;28;20040;-72
2023/03/28 03:32:29;;;;;;;4.97;0.70;;;1.40;99.90;;;;;;5070687;28;20052;-72
2023/03/28 03:34:54;;;;;;;3.75;0.60;;;1.40;99.90;;;;;;5072479;28;20031;-71
2023/03/28 03:37:21;;;;;;;2.85;0.60;;;1.30;99.90;;;;;;5071793;28;20040;-72
2023/03/28 03:39:46;;;;;;;1.27;0.40;;;1.30;99.90;;;;;;5074706;28;20177;-71
2023/03/28 03:42:12;;;;;;;0.55;0.30;;;1.30;99.90;;;;;;5074810;28;20452;-72
2023/03/28 03:44:38;;;;;;;2.50;0.40;;;1.30;99.90;;;;;;5074378;28;20036;-72
2023/03/28 03:47:04;;;;;;;1.10;0.30;;;1.30;99.90;;;;;;5071467;28;20045;-72
2023/03/28 03:49:30;;;;;;;3.08;0.47;;;1.20;99.90;;;;;;5077594;28;20045;-72
2023/03/28 03:51:56;;;;;;;1.90;0.40;;;1.20;99.90;;;;;;5057047;28;20561;-72
2023/03/28 03:54:21;;;;;;;3.10;0.55;;;1.20;99.90;;;;;;5104338;27;20056;-72
2023/03/28 03:56:47;;;;;;;0.65;0.30;;;1.20;99.90;;;;;;5069051;28;20126;-72
2023/03/28 03:59:13;;;;;;;1.75;0.28;;;1.20;99.90;;;;;;5052504;28;20071;-72
2023/03/28 04:01:40;;;;;;;1.23;0.43;;;1.20;99.90;;;;;;5075231;28;20024;-72
2023/03/28 04:04:06;;;;;;;4.88;0.80;;;1.20;99.90;;;;;;5070327;28;20524;-72
2023/03/28 04:06:32;;;;;;;2.47;0.30;;;1.20;99.90;;;;;;5070244;28;20032;-72
2023/03/28 04:08:58;;;;;;;2.40;0.47;;;1.20;99.90;;;;;;5075410;28;20676;-72
2023/03/28 04:11:24;;;;;;;1.05;0.50;;;1.20;99.90;;;;;;5070447;28;20032;-72
2023/03/28 04:13:50;;;;;;;1.45;0.60;;;1.20;99.90;;;;;;5054254;28;20044;-72
2023/03/28 04:16:15;;;;;;;1.73;0.60;;;1.20;99.90;;;;;;5074654;28;20044;-72
2023/03/28 04:18:44;;;;;;;5.25;0.57;;;1.10;99.90;;;;;;5073530;28;20044;-72
2023/03/28 04:21:11;;;;;;;3.63;0.57;;;1.20;99.90;;;;;;5071093;28;20060;-72
2023/03/28 04:23:42;;;;;;;1.50;0.40;;;1.10;99.90;;;;;;5075981;28;20039;-72
2023/03/28 04:26:08;;;;;;;0.63;0.30;;;1.10;99.90;;;;;;5068110;28;20544;-72
2023/03/28 04:28:34;;;;;;;2.95;0.50;;;1.10;99.90;;;;;;5074624;28;20051;-72
2023/03/28 04:31:01;;;;;;;1.10;0.43;;;1.10;99.90;;;;;;5073155;28;20036;-72
2023/03/28 04:33:32;;;;;;;1.95;0.43;;;1.10;99.90;;;;;;5071531;28;20050;-72
2023/03/28 04:36:00;;;;;;;6.50;0.77;;;1.10;99.90;;;;;;5066558;28;20052;-72
2023/03/28 04:38:28;;;;;;;0.45;0.30;;;1.10;99.90;;;;;;5084699;28;20405;-72
2023/03/28 04:40:58;;;;;;;1.77;0.68;;;1.10;99.90;;;;;;5066640;28;20040;-72
2023/03/28 04:43:24;;;;;;;0.35;0.17;;;1.10;99.90;;;;;;5055400;28;20055;-72
2023/03/28 04:45:51;;;;;;;1.00;0.30;;;1.10;99.90;;;;;;5072463;28;20052;-72
2023/03/28 04:48:16;;;;;;;1.40;0.28;;;1.10;99.90;;;;;;5068653;28;20120;-72
2023/03/28 04:50:42;;;;;;;1.58;0.47;;;1.10;99.90;;;;;;5070457;28;20636;-72
2023/03/28 04:53:07;;;;;;;2.78;0.60;;;1.10;99.90;;;;;;5072870;28;20120;-72
2023/03/28 04:55:33;;;;;;;0.47;0.20;;;1.20;99.90;;;;;;5075174;28;20040;-72
2023/03/28 04:57:59;;;;;;;2.13;0.57;;;1.20;99.90;;;;;;5070382;28;20074;-72
2023/03/28 05:00:24;;;;;;;1.35;0.70;;;1.20;99.90;;;;;;5106337;27;20525;-72
2023/03/28 05:02:54;;;;;;;3.58;0.52;;;1.10;99.90;;;;;;5065188;28;20033;-72
2023/03/28 05:05:20;;;;;;;1.10;0.35;;;1.10;99.90;;;;;;5076093;28;20040;-72
2023/03/28 05:07:46;;;;;;;4.72;0.60;;;1.20;99.90;;;;;;5054523;28;20040;-72
2023/03/28 05:10:12;;;;;;;2.13;0.40;;;1.20;99.90;;;;;;5054859;28;20082;-72
2023/03/28 05:12:37;;;;;;;3.88;0.43;;;1.20;99.90;;;;;;5072840;28;20203;-72
2023/03/28 05:15:04;;;;;;;4.82;0.60;;;1.20;99.90;;;;;;5069694;28;20156;-72
2023/03/28 05:17:30;;;;;;;1.02;0.50;;;1.20;99.90;;;;;;5069810;28;20656;-72
2023/03/28 05:19:55;;;;;;;2.28;0.28;;;1.20;99.90;;;;;;5071666;28;20041;-72
2023/03/28 05:22:21;;;;;;;0.75;0.40;;;1.20;99.90;;;;;;5070819;28;20081;-72
2023/03/28 05:24:47;;;;;;;1.65;0.70;;;1.20;99.90;;;;;;5087926;28;20637;-72
2023/03/28 05:27:12;;;;;;;0.60;0.50;;;1.20;99.90;;;;;;5103242;27;22189;-72
2023/03/28 05:29:38;;;;;;;2.85;0.40;;;1.20;99.90;;;;;;5071301;28;20040;-72
2023/03/28 05:32:03;;;;;;;1.20;0.50;;;1.10;99.90;;;;;;5080219;28;20071;-72
2023/03/28 05:34:29;;;;;;;1.98;0.60;;;1.20;99.90;;;;;;5072818;28;20028;-72
2023/03/28 05:36:57;;;;;;;1.42;0.40;;;1.20;99.90;;;;;;5070700;28;20039;-72
2023/03/28 05:39:23;;;;;;;5.78;1.15;;;1.10;99.90;;;;;;5071320;28;20040;-72
2023/03/28 05:41:49;;;;;;;0.88;0.43;;;1.20;99.90;;;;;;5070594;28;20039;-72
2023/03/28 05:44:14;;;;;;;2.65;0.57;;;1.20;99.90;;;;;;5071910;28;20036;-72
2023/03/28 05:46:40;;;;;;;4.85;0.32;;;1.10;99.90;;;;;;5065916;28;20085;-72
2023/03/28 05:49:06;;;;;;;1.95;0.30;;;1.20;99.90;;;;;;5068129;28;20097;-72
2023/03/28 05:51:32;;;;;;;0.45;0.35;;;1.20;99.90;;;;;;5078107;28;20070;-72
2023/03/28 05:53:57;;;;;;;6.57;0.70;;;1.20;99.90;;;;;;5073824;28;20032;-72
2023/03/28 05:56:23;;;;;;;4.63;0.90;;;1.20;99.90;;;;;;5075385;28;20474;-71
2023/03/28 05:58:48;;;;;;;0.57;0.22;;;1.20;99.90;;;;;;5103446;27;20039;-72
2023/03/28 06:01:17;;;;;;;1.42;0.65;;;1.20;99.90;;;;;;5053027;28;20139;-72
2023/03/28 06:03:44;;;;;;;3.30;0.80;;;1.20;99.90;;;;;;5064807;28;20043;-72
2023/03/28 06:06:10;;;;;;;1.50;0.40;;;1.20;99.90;;;;;;5073442;28;20040;-72
2023/03/28 06:08:35;;;;;;;1.95;0.45;;;1.30;99.90;;;;;;5099568;27;20039;-72
2023/03/28 06:11:03;;;;;;;0.75;0.38;;;1.20;99.90;;;;;;5068147;28;20490;-72
2023/03/28 06:13:29;;;;;;;0.80;0.35;;;1.30;99.90;;;;;;5072864;28;20044;-72
2023/03/28 06:15:55;;;;;;;3.58;0.57;;;1.30;99.90;;;;;;5069136;28;20036;-72
2023/03/28 06:18:21;;;;;;;0.75;0.47;;;1.30;99.90;;;;;;5066511;28;20032;-72
2023/03/28 06:20:46;;;;;;;3.03;0.43;;;1.30;99.90;;;;;;5048901;28;20044;-75
2023/03/28 06:23:12;;;;;;;2.25;0.52;;;1.40;99.90;;;;;;5066191;28;20036;-71
2023/03/28 06:25:38;;;;;;;2.40;0.80;;;1.40;99.90;;;;;;5067387;28;20035;-72
2023/03/28 06:28:03;;;;;;;1.38;0.50;;;1.40;99.90;;;;;;5070385;28;20032;-73
2023/03/28 06:30:29;;;;;;;0.50;0.40;;;1.50;99.90;;;;;;5068818;28;20138;-73
2023/03/28 06:32:54;;;;;;;8.57;1.35;;;1.50;99.90;;;;;;5065254;28;20038;-73
2023/03/28 06:35:20;;;;;;;2.47;0.75;;;1.50;99.90;;;;;;5068291;28;20036;-72
2023/03/28 06:37:46;;;;;;;1.05;0.22;;;1.60;99.90;;;;;;5091401;28;20045;-72
2023/03/28 06:40:11;;;;;;;1.33;0.55;;;1.60;99.90;;;;;;5095497;28;20538;-71
2023/03/28 06:42:37;;;;;;;1.10;0.60;;;1.60;99.90;;;;;;5064549;28;20044;-72
2023/03/28 06:45:03;;;;;;;4.03;0.80;;;1.70;99.90;;;;;;5077585;28;20028;-71
2023/03/28 06:47:29;;;;;;;2.42;0.70;;;1.70;99.90;;;;;;5079979;28;20451;-71
2023/03/28 06:49:54;;;;;;;1.65;0.63;;;1.80;99.90;;;;;;5078732;28;20044;-72
2023/03/28 06:52:22;;;;;;;4.45;0.70;;;1.80;99.90;;;;;;5082248;28;20066;-71
2023/03/28 06:54:48;;;;;;;2.08;0.32;;;1.90;99.90;;;;;;5086055;28;20113;-71
2023/03/28 06:57:13;;;;;;;3.30;0.40;;;1.90;99.90;;;;;;5078768;28;20491;-71
2023/03/28 06:59:39;;;;;;;1.35;0.52;;;2.00;99.90;;;;;;5080171;28;20041;-71
2023/03/28 07:02:05;;;;;;;0.40;0.22;;;2.00;99.90;;;;;;5081858;28;20117;-71
2023/03/28 07:04:33;;;;;;;1.98;0.90;;;2.10;99.90;;;;;;5064895;28;20032;-71
2023/03/28 07:06:59;;;;;;;2.22;0.68;;;2.10;99.90;;;;;;5080880;28;20043;-71
2023/03/28 07:09:25;;;;;;;2.42;0.55;;;2.20;99.90;;;;;;5075225;28;20040;-71
2023/03/28 07:11:51;;;;;;;1.48;0.70;;;2.20;99.90;;;;;;5084307;28;20103;-71
2023/03/28 07:14:17;;;;;;;1.00;0.40;;;2.30;99.90;;;;;;5058934;28;20044;-71
2023/03/28 07:16:43;;;;;;;0.50;0.30;;;2.40;99.90;;;;;;5060537;28;20044;-76
2023/03/28 07:19:08;;;;;;;2.35;0.52;;;2.50;99.90;;;;;;5053724;28;20044;-71
2023/03/28 07:21:35;;;;;;;1.63;0.30;;;2.50;99.90;;;;;;5052722;28;20041;-71
2023/03/28 07:24:02;;;;;;;1.02;0.30;;;2.70;99.90;;;;;;5055064;28;20044;-71
2023/03/28 07:26:27;;;;;;;5.03;0.75;;;2.70;99.90;;;;;;5059305;28;20512;-71
2023/03/28 07:28:54;;;;;;;2.95;1.08;;;2.80;99.90;;;;;;5054111;28;20060;-71
2023/03/28 07:31:20;;;;;;;4.22;0.40;;;2.90;99.90;;;;;;5052277;28;20063;-71
2023/03/28 07:33:48;;;;;;;2.47;0.90;;;3.00;99.90;;;;;;5046196;28;20511;-71
2023/03/28 07:36:16;;;;;;;7.47;0.85;;;3.10;99.90;;;;;;5050900;28;20112;-71
2023/03/28 07:38:42;;;;;;;1.95;0.40;;;3.20;99.90;;;;;;5046931;28;20029;-71
2023/03/28 07:41:08;;;;;;;1.70;0.30;;;3.40;99.90;;;;;;5082767;28;20048;-71
2023/03/28 07:43:34;;;;;;;0.88;0.63;;;3.50;99.90;;;;;;5053676;28;20084;-71
2023/03/28 07:46:02;;;;;;;1.92;0.52;;;3.60;99.90;;;;;;5061279;28;20139;-71
2023/03/28 07:48:28;;;;;;;3.50;0.30;;;3.70;99.90;;;;;;5058652;28;20040;-71
2023/03/28 07:50:54;;;;;;;5.18;0.80;;;3.80;99.90;;;;;;5051428;28;20154;-71
2023/03/28 07:53:20;;;;;;;1.85;0.45;;;3.90;99.90;;;;;;5049247;28;20045;-71
2023/03/28 07:55:48;;;;;;;2.50;0.63;;;4.00;99.90;;;;;;5050437;28;20900;-71
2023/03/28 07:58:14;;;;;;;0.52;0.40;;;4.10;99.90;;;;;;5040574;28;20094;-71
2023/03/28 08:00:40;;;;;;;0.50;0.30;;;4.20;99.90;;;;;;5050968;28;20037;-71
2023/03/28 08:03:06;;;;;;;2.03;0.38;;;4.30;99.90;;;;;;5049064;28;20395;-72
2023/03/28 08:05:33;;;;;;;1.25;0.30;;;4.40;99.90;;;;;;5033363;28;20468;-71
2023/03/28 08:07:58;;;;;;;2.05;0.35;;;4.50;99.90;;;;;;5052480;28;20045;-72
2023/03/28 08:10:24;;;;;;;3.17;0.50;;;4.60;99.90;;;;;;5045053;28;20583;-72
2023/03/28 08:12:50;;;;;;;0.70;0.40;;;4.70;99.90;;;;;;5062044;28;20428;-72
2023/03/28 08:15:16;;;;;;;3.22;0.38;;;4.80;99.90;;;;;;5072939;28;20083;-72
2023/03/28 08:17:41;;;;;;;1.45;0.40;;;4.90;99.90;;;;;;5053799;28;20505;-72
2023/03/28 08:20:09;;;;;;;1.15;0.35;;;4.90;99.90;;;;;;5062544;28;20036;-72
2023/03/28 08:22:35;;;;;;;2.40;0.43;;;5.00;99.90;;;;;;5050257;28;20119;-71
2023/03/28 08:25:00;;;;;;;3.15;0.50;;;5.10;99.90;;;;;;5066457;28;20479;-72
2023/03/28 08:27:26;;;;;;;1.65;0.57;;;5.10;99.90;;;;;;5096371;27;20040;-72
2023/03/28 08:29:51;;;;;;;0.75;0.50;;;5.20;99.90;;;;;;5067460;28;20038;-72
2023/03/28 08:32:17;;;;;;;3.20;0.43;;;5.20;99.90;;;;;;5070284;28;20398;-72
2023/03/28 08:34:43;;;;;;;0.88;0.40;;;5.20;99.90;;;;;;5073719;28;20093;-72
2023/03/28 08:37:08;;;;;;;0.45;0.40;;;5.20;99.90;;;;;;5051924;28;20040;-72
2023/03/28 08:39:36;;;;;;;3.22;0.70;;;5.20;99.90;;;;;;5063845;28;20051;-72
2023/03/28 08:42:10;;;;;;;1.40;0.65;;;5.30;99.90;;;;;;5069420;28;20044;-72
2023/03/28 08:44:54;;;;;;;1.52;0.50;;;5.30;99.90;;;;;;5075128;28;20043;-72
2023/03/28 08:47:30;;;;;;;5.18;0.70;;;5.30;99.90;;;;;;5067315;28;20063;-72
2023/03/28 08:50:16;;;;;;;3.58;0.85;;;5.30;99.90;;;;;;5052437;28;20487;-72
2023/03/28 08:52:43;;;;;;;2.08;0.40;;;5.40;99.90;;;;;;5073599;28;20513;-72
2023/03/28 08:55:37;;;;;;;4.38;0.50;;;5.40;99.90;;;;;;5073426;28;20486;-72
2023/03/28 08:58:04;;;;;;;4.75;1.02;;;5.40;99.90;;;;;;5072033;28;20035;-72
2023/03/28 09:00:33;;;;;;;3.13;0.43;;;5.40;99.90;;;;;;5087439;28;20051;-72
2023/03/28 09:02:59;;;;;;;4.57;1.27;;;5.40;99.90;;;;;;5072401;28;20028;-72
2023/03/28 09:05:49;;;;;;;2.45;0.40;;;5.40;99.90;;;;;;5073793;28;20131;-72
2023/03/28 09:08:42;;;;;;;1.20;0.50;;;5.40;99.90;;;;;;5103071;27;20128;-72
2023/03/28 09:11:14;;;;;;;0.20;0.15;;;5.50;99.90;;;;;;5064272;28;20044;-72
2023/03/28 09:14:23;;;;;;;0.70;0.65;;;5.60;99.90;;;;;;5050485;28;20147;-72
2023/03/28 09:16:57;;;;;;;0.55;0.22;;;5.70;99.90;;;;;;5004322;28;20487;-72
2023/03/28 09:19:55;;;;;;;0.28;0.17;;;5.90;99.90;;;;;;5051473;28;20076;-73
2023/03/28 09:22:34;;;;;;;0.60;0.20;;;6.00;99.90;;;;;;5048893;28;20120;-72
2023/03/28 09:25:18;;;;;;;0.57;0.20;;;6.10;99.90;;;;;;5067908;28;20185;-75
2023/03/28 09:28:08;;;;;;;2.38;0.60;;;6.10;99.90;;;;;;5059168;28;20067;-74
2023/03/28 09:30:46;;;;;;;0.82;0.45;;;6.10;99.90;;;;;;5102255;27;20036;-73
2023/03/28 09:33:31;;;;;;;1.52;0.60;;;6.10;99.90;;;;;;5068591;28;20028;-72
2023/03/28 09:35:57;;;;;;;1.13;0.30;;;6.20;99.90;;;;;;5100659;27;20052;-72
2023/03/28 09:38:34;;;;;;;2.03;0.40;;;6.20;99.90;;;;;;5066724;28;20180;-71
2023/03/28 09:41:04;;;;;;;3.30;0.40;;;6.30;99.90;;;;;;5070497;28;20040;-69
2023/03/28 09:43:43;;;;;;;0.77;0.30;;;6.40;99.90;;;;;;5068611;28;20032;-71
2023/03/28 09:46:32;;;;;;;1.98;0.60;;;6.50;99.90;;;;;;5084051;28;20057;-72
2023/03/28 09:48:58;;;;;;;3.20;0.65;;;6.60;99.90;;;;;;5077923;28;20047;-72
2023/03/28 09:51:23;;;;;;;2.50;0.70;;;6.60;99.90;;;;;;5073681;28;20490;-72
2023/03/28 09:53:49;;;;;;;0.60;0.32;;;6.60;99.90;;;;;;5099898;27;20047;-72
2023/03/28 09:56:35;;;;;;;0.60;0.22;;;6.70;99.90;;;;;;5064394;28;20055;-72
2023/03/28 09:59:03;;;;;;;2.05;0.50;;;6.70;99.90;;;;;;5064778;28;20040;-75
2023/03/28 10:01:38;;;;;;;1.13;0.13;;;6.70;99.90;;;;;;5071303;28;20040;-71
2023/03/28 10:04:13;;;;;;;1.58;0.43;;;6.70;99.90;;;;;;5077991;28;20036;-71
2023/03/28 10:06:40;;;;;;;0.93;0.60;;;6.70;99.90;;;;;;5064738;28;20036;-72
2023/03/28 10:09:22;;;;;;;2.60;0.55;;;6.80;99.90;;;;;;5053408;28;20505;-72
2023/03/28 10:11:59;;;;;;;2.60;0.57;;;6.90;99.90;;;;;;5066444;28;20032;-72
2023/03/28 10:14:32;;;;;;;0.80;0.30;;;7.10;99.90;;;;;;5078798;28;20044;-72
2023/03/28 10:17:17;;;;;;;1.00;0.40;;;7.10;99.90;;;;;;5077776;28;20040;-72
2023/03/28 10:19:45;;;;;;;1.23;0.65;;;7.10;99.90;;;;;;5075074;28;20122;-72
2023/03/28 10:22:15;;;;;;;1.27;0.30;;;7.10;99.90;;;;;;5082955;28;20039;-72
2023/03/28 10:24:41;;;;;;;1.05;0.30;;;7.10;99.90;;;;;;5077726;28;20036;-72
2023/03/28 10:27:30;;;;;;;0.82;0.17;;;7.10;99.90;;;;;;5078619;28;20032;-72
2023/03/28 10:30:06;;;;;;;1.17;0.50;;;7.10;99.90;;;;;;5076248;28;20455;-72
2023/03/28 10:32:32;;;;;;;2.88;0.35;;;7.20;99.90;;;;;;5068912;28;20048;-72
2023/03/28 10:35:22;;;;;;;2.00;0.30;;;7.20;99.90;;;;;;5070330;28;20073;-72
2023/03/28 10:37:53;;;;;;;0.68;0.25;;;7.30;99.90;;;;;;5069379;28;20044;-72
2023/03/28 10:40:21;;;;;;;0.63;0.40;;;7.30;99.90;;;;;;5073310;28;20491;-72
2023/03/28 10:42:50;;;;;;;0.70;0.38;;;7.30;99.90;;;;;;5051411;28;20051;-72
2023/03/28 10:45:22;;;;;;;1.42;0.45;;;7.30;99.90;;;;;;5063408;28;20097;-72
2023/03/28 10:47:50;;;;;;;0.88;0.40;;;7.30;99.90;;;;;;5065206;28;20363;-72
2023/03/28 10:50:43;;;;;;;3.15;0.90;;;7.30;99.90;;;;;;5064541;28;20426;-72
2023/03/28 10:53:50;;;;;;;2.17;0.40;;;7.30;99.90;;;;;;5064194;28;20071;-72
2023/03/28 10:56:41;;;;;;;2.47;0.55;;;7.20;99.90;;;;;;5067173;28;20074;-72
2023/03/28 10:59:24;;;;;;;0.52;0.30;;;7.20;99.90;;;;;;5080290;28;20044;-72
2023/03/28 11:02:06;;;;;;;2.05;0.40;;;7.20;99.90;;;;;;5067627;28;20049;-72
2023/03/28 11:05:02;;;;;;;1.60;0.47;;;7.20;99.90;;;;;;5072420;28;20474;-72
2023/03/28 11:07:55;;;;;;;0.47;0.30;;;7.20;99.90;;;;;;5089520;28;20040;-72
2023/03/28 11:10:41;;;;;;;0.70;0.30;;;7.20;99.90;;;;;;5068618;28;20068;-72
2023/03/28 11:13:10;;;;;;;;;;;7.30;99.90;;;;;;5101843;28;20067;-72
2023/03/28 11:15:46;;;;;;;2.97;0.32;;;7.30;99.80;;;;;;5100461;28;19944;-72
2023/03/28 11:18:56;;;;;;;4.30;0.70;;;7.40;99.90;;;;;;5061528;28;20037;-72
2023/03/28 11:21:45;;;;;;;0.30;0.20;;;7.50;99.90;;;;;;5069943;28;20417;-72
2023/03/28 11:24:37;;;;;;;2.58;0.55;;;7.50;99.90;;;;;;5045655;28;20554;-72
2023/03/28 11:27:24;;;;;;;0.98;0.40;;;7.50;99.90;;;;;;5102168;28;20644;-73
2023/03/28 11:29:55;;;;;;;0.60;0.30;;;7.50;99.90;;;;;;5067603;28;20072;-72
2023/03/28 11:32:37;;;;;;;1.92;0.70;;;7.50;99.90;;;;;;5074525;28;20070;-73
2023/03/28 11:35:20;;;;;;;1.50;0.47;;;7.50;99.90;;;;;;5053668;28;20035;-72
2023/03/28 11:37:54;;;;;;;3.25;0.70;;;7.60;99.20;;;;;;5071878;28;20036;-72
2023/03/28 11:40:49;;;;;;;1.65;0.73;;;7.50;99.90;;;;;;5072061;28;20036;-72
2023/03/28 11:43:27;;;;;;;1.65;0.40;;;7.50;99.90;;;;;;5047491;28;20053;-72
2023/03/28 11:46:00;;;;;;;1.63;0.70;;;7.60;99.90;;;;;;5067988;28;20044;-72
2023/03/28 11:48:40;;;;;;;0.70;0.40;;;7.60;99.90;;;;;;5082952;28;20032;-72
2023/03/28 11:51:15;;;;;;;2.13;0.80;;;7.50;98.60;;;;;;5067415;28;20067;-72
2023/03/28 11:53:57;;;;;;;2.30;0.88;;;7.50;99.70;;;;;;5071287;28;20161;-72
2023/03/28 11:56:43;;;;;;;1.30;0.60;;;7.50;99.40;;;;;;5056932;28;20063;-73
2023/03/28 11:59:24;;;;;;;3.05;0.73;;;7.50;99.80;;;;;;5058777;28;20209;-72
2023/03/28 12:01:56;;;;;;;1.35;0.63;;;7.50;99.00;;;;;;5106166;27;20543;-73
2023/03/28 12:04:48;;;;;;;1.55;0.65;;;7.60;99.90;;;;;;5067299;28;20040;-72
2023/03/28 12:07:42;;;;;;;2.28;0.50;;;7.60;99.60;;;;;;5055844;28;20382;-72
2023/03/28 12:10:24;;;;;;;2.38;0.60;;;7.60;98.30;;;;;;5062340;28;20058;-72
2023/03/28 12:13:14;;;;;;;1.02;0.63;;;7.70;99.60;;;;;;5080502;28;20052;-72
2023/03/28 12:15:47;;;;;;;1.92;0.60;;;7.80;99.40;;;;;;5060214;28;20134;-72
2023/03/28 12:18:35;;;;;;;2.83;0.52;;;7.90;99.10;;;;;;5074535;28;20082;-72
2023/03/28 12:21:20;;;;;;;3.95;0.75;;;8.00;98.20;;;;;;5051095;28;20043;-72
2023/03/28 12:23:58;;;;;;;0.98;0.50;;;7.90;97.90;;;;;;5087930;28;20103;-72
2023/03/28 12:26:59;;;;;;;1.42;0.50;;;8.00;98.00;;;;;;5068776;28;21553;-72
2023/03/28 12:29:47;;;;;;;1.05;0.70;;;7.90;96.50;;;;;;5069170;28;20072;-72
2023/03/28 12:32:32;;;;;;;3.22;0.55;;;7.90;97.50;;;;;;5088848;28;20048;-76
2023/03/28 12:35:11;;;;;;;3.10;0.40;;;7.90;96.90;;;;;;5084355;27;20635;-73
2023/03/28 12:37:55;;;;;;;1.92;0.57;;;7.90;98.20;;;;;;5068662;28;20299;-72
2023/03/28 12:40:26;;;;;;;1.23;0.40;;;7.90;97.70;;;;;;5071834;28;20044;-72
2023/03/28 12:42:56;;;;;;;1.30;0.60;;;8.00;98.50;;;;;;5074271;28;20127;-72
2023/03/28 12:45:37;;;;;;;1.88;0.60;;;7.90;98.80;;;;;;5055995;28;20033;-72
2023/03/28 12:48:26;;;;;;;6.75;0.75;;;7.90;98.20;;;;;;5067453;28;20437;-72
2023/03/28 12:50:58;;;;;;;2.00;0.60;;;8.00;98.60;;;;;;5054689;28;20116;-72
2023/03/28 12:53:32;;;;;;;3.25;0.90;;;8.00;98.70;;;;;;5095451;27;20047;-72
2023/03/28 12:55:58;;;;;;;1.08;0.52;;;8.00;97.90;;;;;;5048345;28;20048;-72
2023/03/28 12:58:27;;;;;;;1.48;0.60;;;8.00;98.20;;;;;;5050500;28;20055;-72
2023/03/28 13:01:12;;;;;;;2.40;0.70;;;8.10;98.40;;;;;;5075527;28;20150;-72
2023/03/28 13:04:00;;;;;;;2.08;0.60;;;8.10;98.30;;;;;;5067431;28;20048;-72
2023/03/28 13:06:48;;;;;;;1.88;0.65;;;8.00;97.20;;;;;;5064601;28;20051;-72
2023/03/28 13:09:45;;;;;;;2.53;0.85;;;8.00;97.90;;;;;;5069080;28;20111;-72
2023/03/28 13:12:31;;;;;;;1.98;0.80;;;8.00;98.40;;;;;;5068040;28;20477;-72
2023/03/28 13:15:21;;;;;;;2.60;0.95;;;8.10;97.40;;;;;;5062786;28;20040;-72
2023/03/28 13:18:21;;;;;;;3.85;0.73;;;8.10;98.00;;;;;;5052425;28;20118;-72
2023/03/28 13:20:51;;;;;;;3.95;0.80;;;8.10;97.20;;;;;;5062919;28;20081;-72
2023/03/28 13:23:23;;;;;;;2.83;0.80;;;8.00;97.60;;;;;;5068135;28;20040;-72
2023/03/28 13:25:54;;;;;;;3.55;0.70;;;8.10;98.20;;;;;;5065204;28;20044;-72
2023/03/28 13:28:27;;;;;;;2.47;0.60;;;8.00;97.80;;;;;;5067178;28;20065;-72